sensor_id;sensor_type;location;lat;lon;timestamp;pressure;altitude;pressure_sealevel;temperature;humidity
22047;BME280;11187;49.412;20.956;2023-04-27T00:02:31;95054.94;;;0.80;97.68
22047;BME280;11187;49.412;20.956;2023-04-27T00:05:24;95049.03;;;0.78;97.70
22047;BME280;11187;49.412;20.956;2023-04-27T00:07:58;95055.75;;;0.77;97.64
22047;BME280;11187;49.412;20.956;2023-04-27T00:14:41;95053.06;;;0.68;97.72
22047;BME280;11187;49.412;20.956;2023-04-27T00:17:15;95055.47;;;0.63;97.69
22047;BME280;11187;49.412;20.956;2023-04-27T00:20:01;95053.75;;;0.59;98.15
22047;BME280;11187;49.412;20.956;2023-04-27T00:22:38;95054.63;;;0.61;98.16
22047;BME280;11187;49.412;20.956;2023-04-27T00:25:31;95054.63;;;0.61;97.87
22047;BME280;11187;49.412;20.956;2023-04-27T00:28:25;95049.50;;;0.58;98.53
22047;BME280;11187;49.412;20.956;2023-04-27T00:30:59;95052.78;;;0.54;98.17
22047;BME280;11187;49.412;20.956;2023-04-27T00:33:52;95044.38;;;0.54;98.34
22047;BME280;11187;49.412;20.956;2023-04-27T00:36:26;95051.06;;;0.52;98.32
22047;BME280;11187;49.412;20.956;2023-04-27T00:39:12;95047.66;;;0.50;98.63
22047;BME280;11187;49.412;20.956;2023-04-27T00:41:46;95061.13;;;0.50;98.46
22047;BME280;11187;49.412;20.956;2023-04-27T00:44:32;95053.53;;;0.49;98.91
22047;BME280;11187;49.412;20.956;2023-04-27T00:47:06;95057.63;;;0.45;98.76
22047;BME280;11187;49.412;20.956;2023-04-27T00:49:52;95050.09;;;0.45;98.57
22047;BME280;11187;49.412;20.956;2023-04-27T00:52:26;95063.47;;;0.43;98.65
22047;BME280;11187;49.412;20.956;2023-04-27T00:55:12;95055.13;;;0.44;98.75
22047;BME280;11187;49.412;20.956;2023-04-27T00:57:46;95062.53;;;0.37;98.64
22047;BME280;11187;49.412;20.956;2023-04-27T01:00:39;95056.59;;;0.34;99.02
22047;BME280;11187;49.412;20.956;2023-04-27T01:03:33;95055.69;;;0.32;99.06
22047;BME280;11187;49.412;20.956;2023-04-27T01:06:07;95052.25;;;0.27;99.04
22047;BME280;11187;49.412;20.956;2023-04-27T01:08:53;95053.88;;;0.23;98.94
22047;BME280;11187;49.412;20.956;2023-04-27T01:11:27;95058.81;;;0.20;99.07
22047;BME280;11187;49.412;20.956;2023-04-27T01:14:13;95054.69;;;0.22;99.41
22047;BME280;11187;49.412;20.956;2023-04-27T01:16:47;95055.44;;;0.18;99.03
22047;BME280;11187;49.412;20.956;2023-04-27T01:19:40;95062.97;;;0.16;99.46
22047;BME280;11187;49.412;20.956;2023-04-27T01:22:14;95068.88;;;0.18;99.41
22047;BME280;11187;49.412;20.956;2023-04-27T01:25:00;95062.09;;;0.16;99.26
22047;BME280;11187;49.412;20.956;2023-04-27T01:27:34;95056.22;;;0.15;99.13
22047;BME280;11187;49.412;20.956;2023-04-27T01:30:20;95070.44;;;0.13;99.62
22047;BME280;11187;49.412;20.956;2023-04-27T01:32:57;95062.84;;;0.10;99.48
22047;BME280;11187;49.412;20.956;2023-04-27T01:35:50;95067.81;;;0.07;99.75
22047;BME280;11187;49.412;20.956;2023-04-27T01:38:44;95065.22;;;0.04;99.76
22047;BME280;11187;49.412;20.956;2023-04-27T01:41:38;95060.09;;;-0.01;99.45
22047;BME280;11187;49.412;20.956;2023-04-27T01:44:32;95067.59;;;-0.04;99.62
22047;BME280;11187;49.412;20.956;2023-04-27T01:47:26;95076.00;;;-0.02;99.97
22047;BME280;11187;49.412;20.956;2023-04-27T01:50:20;95076.06;;;0.00;100.00
22047;BME280;11187;49.412;20.956;2023-04-27T01:53:14;95075.28;;;0.04;100.00
22047;BME280;11187;49.412;20.956;2023-04-27T01:56:10;95074.38;;;0.01;100.00
22047;BME280;11187;49.412;20.956;2023-04-27T01:59:04;95072.63;;;-0.04;100.00
22047;BME280;11187;49.412;20.956;2023-04-27T02:01:58;95070.13;;;-0.02;100.00
22047;BME280;11187;49.412;20.956;2023-04-27T02:04:52;95075.38;;;0.07;100.00
22047;BME280;11187;49.412;20.956;2023-04-27T02:07:26;95076.25;;;0.09;100.00
22047;BME280;11187;49.412;20.956;2023-04-27T02:10:19;95079.72;;;0.16;100.00
22047;BME280;11187;49.412;20.956;2023-04-27T02:13:13;95079.84;;;0.20;100.00
22047;BME280;11187;49.412;20.956;2023-04-27T02:16:07;95078.22;;;0.24;100.00
22047;BME280;11187;49.412;20.956;2023-04-27T02:18:41;95075.69;;;0.24;100.00
22047;BME280;11187;49.412;20.956;2023-04-27T02:21:27;95084.03;;;0.22;100.00
22047;BME280;11187;49.412;20.956;2023-04-27T02:24:01;95081.53;;;0.22;100.00
22047;BME280;11187;49.412;20.956;2023-04-27T02:26:47;95087.34;;;0.19;100.00
22047;BME280;11187;49.412;20.956;2023-04-27T02:29:21;95084.00;;;0.18;100.00
22047;BME280;11187;49.412;20.956;2023-04-27T02:32:07;95080.59;;;0.18;100.00
22047;BME280;11187;49.412;20.956;2023-04-27T02:34:41;95082.34;;;0.20;100.00
22047;BME280;11187;49.412;20.956;2023-04-27T02:37:27;95091.50;;;0.17;100.00
22047;BME280;11187;49.412;20.956;2023-04-27T02:40:01;95084.66;;;0.11;100.00
22047;BME280;11187;49.412;20.956;2023-04-27T02:42:47;95083.81;;;0.11;100.00
22047;BME280;11187;49.412;20.956;2023-04-27T02:45:41;95079.56;;;0.08;100.00
22047;BME280;11187;49.412;20.956;2023-04-27T02:48:35;95084.50;;;0.04;100.00
22047;BME280;11187;49.412;20.956;2023-04-27T02:51:09;95091.16;;;0.02;100.00
22047;BME280;11187;49.412;20.956;2023-04-27T02:53:55;95076.06;;;0.00;100.00
22047;BME280;11187;49.412;20.956;2023-04-27T02:56:29;95083.53;;;-0.03;100.00
22047;BME280;11187;49.412;20.956;2023-04-27T02:59:16;95090.19;;;-0.07;100.00
22047;BME280;11187;49.412;20.956;2023-04-27T03:01:50;95090.06;;;-0.11;100.00
22047;BME280;11187;49.412;20.956;2023-04-27T03:04:43;95094.22;;;-0.13;100.00
22047;BME280;11187;49.412;20.956;2023-04-27T03:07:38;95099.16;;;-0.18;100.00
22047;BME280;11187;49.412;20.956;2023-04-27T03:10:12;95104.06;;;-0.23;100.00
22047;BME280;11187;49.412;20.956;2023-04-27T03:13:05;95103.97;;;-0.27;100.00
22047;BME280;11187;49.412;20.956;2023-04-27T03:15:39;95103.03;;;-0.31;100.00
22047;BME280;11187;49.412;20.956;2023-04-27T03:18:32;95109.81;;;-0.28;100.00
22047;BME280;11187;49.412;20.956;2023-04-27T03:21:10;95106.50;;;-0.26;100.00
22047;BME280;11187;49.412;20.956;2023-04-27T03:23:57;95102.38;;;-0.24;100.00
22047;BME280;11187;49.412;20.956;2023-04-27T03:26:31;95111.53;;;-0.26;100.00
22047;BME280;11187;49.412;20.956;2023-04-27T03:29:24;95108.13;;;-0.29;100.00
22047;BME280;11187;49.412;20.956;2023-04-27T03:31:58;95109.66;;;-0.36;100.00
22047;BME280;11187;49.412;20.956;2023-04-27T03:34:51;95108.72;;;-0.39;100.00
22047;BME280;11187;49.412;20.956;2023-04-27T03:37:45;95119.56;;;-0.42;100.00
22047;BME280;11187;49.412;20.956;2023-04-27T03:40:39;95121.22;;;-0.43;100.00
22047;BME280;11187;49.412;20.956;2023-04-27T03:43:13;95119.56;;;-0.42;100.00
22047;BME280;11187;49.412;20.956;2023-04-27T03:45:59;95124.63;;;-0.40;100.00
22047;BME280;11187;49.412;20.956;2023-04-27T03:48:33;95122.84;;;-0.45;100.00
22047;BME280;11187;49.412;20.956;2023-04-27T03:51:19;95123.75;;;-0.43;100.00
22047;BME280;11187;49.412;20.956;2023-04-27T03:53:53;95129.59;;;-0.42;100.00
22047;BME280;11187;49.412;20.956;2023-04-27T03:56:39;95131.28;;;-0.41;100.00
22047;BME280;11187;49.412;20.956;2023-04-27T03:59:13;95134.78;;;-0.36;100.00
22047;BME280;11187;49.412;20.956;2023-04-27T04:02:02;95134.81;;;-0.34;100.00
22047;BME280;11187;49.412;20.956;2023-04-27T04:04:37;95134.91;;;-0.31;100.00
22047;BME280;11187;49.412;20.956;2023-04-27T04:07:23;95146.59;;;-0.33;100.00
22047;BME280;11187;49.412;20.956;2023-04-27T04:09:57;95143.28;;;-0.31;100.00
22047;BME280;11187;49.412;20.956;2023-04-27T04:12:43;95145.03;;;-0.28;100.00
22047;BME280;11187;49.412;20.956;2023-04-27T04:15:17;95151.78;;;-0.26;100.00
22047;BME280;11187;49.412;20.956;2023-04-27T04:18:03;95151.78;;;-0.27;100.00
22047;BME280;11187;49.412;20.956;2023-04-27T04:20:37;95147.69;;;-0.22;100.00
22047;BME280;11187;49.412;20.956;2023-04-27T04:23:24;95152.88;;;-0.16;100.00
22047;BME280;11187;49.412;20.956;2023-04-27T04:25:57;95152.09;;;-0.13;100.00
22047;BME280;11187;49.412;20.956;2023-04-27T04:28:43;95151.25;;;-0.12;100.00
22047;BME280;11187;49.412;20.956;2023-04-27T04:31:17;95158.84;;;-0.11;100.00
22047;BME280;11187;49.412;20.956;2023-04-27T04:34:10;95165.47;;;-0.14;100.00
22047;BME280;11187;49.412;20.956;2023-04-27T04:36:44;95172.22;;;-0.13;100.00
22047;BME280;11187;49.412;20.956;2023-04-27T04:39:31;95172.34;;;-0.09;100.00
22047;BME280;11187;49.412;20.956;2023-04-27T04:42:05;95166.47;;;-0.08;100.00
22047;BME280;11187;49.412;20.956;2023-04-27T04:44:51;95174.84;;;-0.07;100.00
22047;BME280;11187;49.412;20.956;2023-04-27T04:47:45;95174.91;;;-0.06;100.00
22047;BME280;11187;49.412;20.956;2023-04-27T04:50:19;95174.22;;;0.00;100.00
22047;BME280;11187;49.412;20.956;2023-04-27T04:53:12;95180.25;;;0.08;100.00
22047;BME280;11187;49.412;20.956;2023-04-27T04:55:46;95182.88;;;0.13;100.00
22047;BME280;11187;49.412;20.956;2023-04-27T04:58:39;95184.72;;;0.20;100.00
22047;BME280;11187;49.412;20.956;2023-04-27T05:01:33;95187.28;;;0.22;100.00
22047;BME280;11187;49.412;20.956;2023-04-27T05:04:07;95188.22;;;0.27;100.00
22047;BME280;11187;49.412;20.956;2023-04-27T05:07:00;95182.38;;;0.28;100.00
22047;BME280;11187;49.412;20.956;2023-04-27T05:09:36;95186.09;;;0.45;100.00
22047;BME280;11187;49.412;20.956;2023-04-27T05:12:23;95185.78;;;0.69;100.00
22047;BME280;11187;49.412;20.956;2023-04-27T05:14:57;95179.22;;;0.77;100.00
22047;BME280;11187;49.412;20.956;2023-04-27T05:17:43;95183.56;;;0.86;100.00
22047;BME280;11187;49.412;20.956;2023-04-27T05:20:17;95187.03;;;0.90;100.00
22047;BME280;11187;49.412;20.956;2023-04-27T05:23:10;95192.16;;;0.94;100.00
22047;BME280;11187;49.412;20.956;2023-04-27T05:25:44;95187.19;;;0.99;100.00
22047;BME280;11187;49.412;20.956;2023-04-27T05:28:30;95184.72;;;1.02;100.00
22047;BME280;11187;49.412;20.956;2023-04-27T05:31:04;95192.31;;;1.03;100.00
22047;BME280;11187;49.412;20.956;2023-04-27T05:33:57;95192.66;;;1.20;100.00
22047;BME280;11187;49.412;20.956;2023-04-27T05:36:51;95195.66;;;1.46;100.00
22047;BME280;11187;49.412;20.956;2023-04-27T05:39:45;95195.34;;;1.78;100.00
22047;BME280;11187;49.412;20.956;2023-04-27T05:42:19;95192.44;;;2.07;100.00
22047;BME280;11187;49.412;20.956;2023-04-27T05:45:09;95199.66;;;2.39;100.00
22047;BME280;11187;49.412;20.956;2023-04-27T05:47:43;95199.22;;;2.69;100.00
22047;BME280;11187;49.412;20.956;2023-04-27T05:50:29;95202.13;;;3.00;99.70
22047;BME280;11187;49.412;20.956;2023-04-27T05:53:03;95199.81;;;3.17;98.52
22047;BME280;11187;49.412;20.956;2023-04-27T05:55:49;95206.06;;;3.51;98.46
22047;BME280;11187;49.412;20.956;2023-04-27T05:58:23;95207.19;;;3.79;96.96
22047;BME280;11187;49.412;20.956;2023-04-27T06:01:16;95201.47;;;4.00;95.59
22047;BME280;11187;49.412;20.956;2023-04-27T06:03:50;95210.13;;;4.28;94.89
22047;BME280;11187;49.412;20.956;2023-04-27T06:06:46;95203.59;;;4.61;95.00
22047;BME280;11187;49.412;20.956;2023-04-27T06:09:41;95202.94;;;5.03;89.89
22047;BME280;11187;49.412;20.956;2023-04-27T06:12:14;95203.84;;;5.10;86.31
22047;BME280;11187;49.412;20.956;2023-04-27T06:15:00;95208.94;;;5.15;86.02
22047;BME280;11187;49.412;20.956;2023-04-27T06:17:43;95207.25;;;5.20;86.18
22047;BME280;11187;49.412;20.956;2023-04-27T06:20:36;95207.28;;;5.28;86.52
22047;BME280;11187;49.412;20.956;2023-04-27T06:23:30;95211.53;;;5.33;84.44
22047;BME280;11187;49.412;20.956;2023-04-27T06:26:24;95203.09;;;5.47;84.62
22047;BME280;11187;49.412;20.956;2023-04-27T06:29:18;95210.78;;;5.79;84.71
22047;BME280;11187;49.412;20.956;2023-04-27T06:31:52;95210.03;;;6.09;84.73
22047;BME280;11187;49.412;20.956;2023-04-27T06:34:46;95213.38;;;6.46;82.30
22047;BME280;11187;49.412;20.956;2023-04-27T06:37:39;95210.78;;;6.89;82.47
22047;BME280;11187;49.412;20.956;2023-04-27T06:40:13;95224.25;;;7.22;80.16
22047;BME280;11187;49.412;20.956;2023-04-27T06:42:59;95221.59;;;7.50;80.70
22047;BME280;11187;49.412;20.956;2023-04-27T06:45:33;95222.34;;;7.69;78.32
22047;BME280;11187;49.412;20.956;2023-04-27T06:48:19;95221.28;;;8.02;77.34
22047;BME280;11187;49.412;20.956;2023-04-27T06:50:53;95216.84;;;8.26;76.71
22047;BME280;11187;49.412;20.956;2023-04-27T06:53:46;95214.84;;;8.65;75.92
22047;BME280;11187;49.412;20.956;2023-04-27T06:56:42;95206.97;;;8.88;72.31
22047;BME280;11187;49.412;20.956;2023-04-27T06:59:17;95218.56;;;9.18;70.54
22047;BME280;11187;49.412;20.956;2023-04-27T07:02:10;95209.88;;;9.34;68.86
22047;BME280;11187;49.412;20.956;2023-04-27T07:05:05;95215.69;;;9.44;65.07
22047;BME280;11187;49.412;20.956;2023-04-27T07:07:38;95208.59;;;9.68;67.50
22047;BME280;11187;49.412;20.956;2023-04-27T07:10:31;95212.28;;;10.09;66.01
22047;BME280;11187;49.412;20.956;2023-04-27T07:13:25;95216.09;;;10.39;65.65
22047;BME280;11187;49.412;20.956;2023-04-27T07:16:19;95223.38;;;10.63;64.11
22047;BME280;11187;49.412;20.956;2023-04-27T07:18:53;95220.50;;;10.83;63.60
22047;BME280;11187;49.412;20.956;2023-04-27T07:21:46;95220.19;;;10.99;63.08
22047;BME280;11187;49.412;20.956;2023-04-27T07:24:40;95220.72;;;10.70;61.82
22047;BME280;11187;49.412;20.956;2023-04-27T07:27:14;95222.66;;;10.55;62.05
22047;BME280;11187;49.412;20.956;2023-04-27T07:30:00;95218.59;;;10.42;62.37
22047;BME280;11187;49.412;20.956;2023-04-27T07:32:39;95223.34;;;10.11;63.03
22047;BME280;11187;49.412;20.956;2023-04-27T07:35:32;95229.13;;;9.60;62.67
22047;BME280;11187;49.412;20.956;2023-04-27T07:38:09;95233.88;;;9.19;62.03
22047;BME280;11187;49.412;20.956;2023-04-27T07:41:01;95225.66;;;8.91;64.30
22047;BME280;11187;49.412;20.956;2023-04-27T07:43:36;95226.69;;;8.73;65.13
22047;BME280;11187;49.412;20.956;2023-04-27T07:46:22;95238.75;;;8.56;65.12
22047;BME280;11187;49.412;20.956;2023-04-27T07:48:56;95237.19;;;8.36;66.13
22047;BME280;11187;49.412;20.956;2023-04-27T07:51:42;95241.50;;;8.30;65.56
22047;BME280;11187;49.412;20.956;2023-04-27T07:54:16;95239.84;;;8.20;65.86
22047;BME280;11187;49.412;20.956;2023-04-27T07:57:10;95243.38;;;8.03;63.58
22047;BME280;11187;49.412;20.956;2023-04-27T08:00:04;95237.50;;;7.92;64.26
22047;BME280;11187;49.412;20.956;2023-04-27T08:02:41;95242.72;;;7.67;64.07
22047;BME280;11187;49.412;20.956;2023-04-27T08:05:28;95240.78;;;8.08;63.55
22047;BME280;11187;49.412;20.956;2023-04-27T08:08:01;95230.19;;;8.63;64.02
22047;BME280;11187;49.412;20.956;2023-04-27T08:10:48;95225.91;;;9.47;62.69
22047;BME280;11187;49.412;20.956;2023-04-27T08:13:22;95225.06;;;10.09;61.03
22047;BME280;11187;49.412;20.956;2023-04-27T08:16:15;95225.97;;;10.60;59.07
22047;BME280;11187;49.412;20.956;2023-04-27T08:19:10;95228.47;;;11.13;58.47
22047;BME280;11187;49.412;20.956;2023-04-27T08:22:03;95224.97;;;11.61;56.66
22047;BME280;11187;49.412;20.956;2023-04-27T08:24:58;95224.50;;;12.24;52.67
22047;BME280;11187;49.412;20.956;2023-04-27T08:27:32;95225.44;;;12.20;52.97
22047;BME280;11187;49.412;20.956;2023-04-27T08:30:28;95223.91;;;12.11;52.58
22047;BME280;11187;49.412;20.956;2023-04-27T08:33:22;95231.56;;;11.73;51.27
22047;BME280;11187;49.412;20.956;2023-04-27T08:36:18;95236.09;;;11.18;50.45
22047;BME280;11187;49.412;20.956;2023-04-27T08:38:51;95245.28;;;10.81;53.67
22047;BME280;11187;49.412;20.956;2023-04-27T08:41:41;95246.66;;;10.48;53.59
22047;BME280;11187;49.412;20.956;2023-04-27T08:44:14;95251.34;;;10.18;54.44
22047;BME280;11187;49.412;20.956;2023-04-27T08:47:09;95254.50;;;9.74;53.98
22047;BME280;11187;49.412;20.956;2023-04-27T08:50:18;95260.13;;;9.34;55.85
22047;BME280;11187;49.412;20.956;2023-04-27T08:52:52;95268.28;;;8.86;57.53
22047;BME280;11187;49.412;20.956;2023-04-27T08:55:38;95274.47;;;8.56;58.88
22047;BME280;11187;49.412;20.956;2023-04-27T08:58:12;95280.72;;;8.10;60.34
22047;BME280;11187;49.412;20.956;2023-04-27T09:01:04;95279.94;;;8.01;61.90
22047;BME280;11187;49.412;20.956;2023-04-27T09:03:38;95282.41;;;8.18;63.74
22047;BME280;11187;49.412;20.956;2023-04-27T09:06:33;95280.66;;;8.20;64.11
22047;BME280;11187;49.412;20.956;2023-04-27T09:09:06;95282.44;;;8.13;64.80
22047;BME280;11187;49.412;20.956;2023-04-27T09:11:52;95268.88;;;8.03;64.95
22047;BME280;11187;49.412;20.956;2023-04-27T09:14:29;95268.00;;;8.09;64.06
22047;BME280;11187;49.412;20.956;2023-04-27T09:17:27;95267.09;;;8.18;63.65
22047;BME280;11187;49.412;20.956;2023-04-27T09:20:21;95266.16;;;8.28;63.80
22047;BME280;11187;49.412;20.956;2023-04-27T09:22:57;95248.00;;;8.69;61.65
22047;BME280;11187;49.412;20.956;2023-04-27T09:25:43;95250.59;;;9.47;61.40
22047;BME280;11187;49.412;20.956;2023-04-27T09:28:17;95245.28;;;10.25;60.33
22047;BME280;11187;49.412;20.956;2023-04-27T09:31:04;95245.16;;;10.87;57.17
22047;BME280;11187;49.412;20.956;2023-04-27T09:33:37;95238.28;;;11.38;56.98
22047;BME280;11187;49.412;20.956;2023-04-27T09:36:25;95235.81;;;11.74;53.76
22047;BME280;11187;49.412;20.956;2023-04-27T09:39:01;95231.28;;;12.25;54.40
22047;BME280;11187;49.412;20.956;2023-04-27T09:41:51;95224.94;;;12.76;52.38
22047;BME280;11187;49.412;20.956;2023-04-27T09:44:25;95223.28;;;12.73;51.05
22047;BME280;11187;49.412;20.956;2023-04-27T09:47:14;95224.69;;;12.15;52.77
22047;BME280;11187;49.412;20.956;2023-04-27T09:49:47;95225.00;;;11.59;52.57
22047;BME280;11187;49.412;20.956;2023-04-27T09:52:42;95225.44;;;10.93;53.66
22047;BME280;11187;49.412;20.956;2023-04-27T10:07:22;95245.53;;;9.44;57.87
22047;BME280;11187;49.412;20.956;2023-04-27T10:10:01;95241.59;;;9.15;59.45
22047;BME280;11187;49.412;20.956;2023-04-27T10:12:59;95236.91;;;8.73;57.22
22047;BME280;11187;49.412;20.956;2023-04-27T10:15:54;95237.03;;;8.58;58.70
22047;BME280;11187;49.412;20.956;2023-04-27T10:18:33;95233.69;;;8.53;59.04
22047;BME280;11187;49.412;20.956;2023-04-27T10:21:20;95232.78;;;8.59;59.84
22047;BME280;11187;49.412;20.956;2023-04-27T10:24:06;95227.72;;;8.52;57.91
22047;BME280;11187;49.412;20.956;2023-04-27T10:27:00;95230.25;;;8.59;56.37
22047;BME280;11187;49.412;20.956;2023-04-27T10:29:43;95224.44;;;8.38;56.02
22047;BME280;11187;49.412;20.956;2023-04-27T10:32:30;95220.00;;;8.63;56.60
22047;BME280;11187;49.412;20.956;2023-04-27T10:35:04;95221.31;;;9.01;55.05
22047;BME280;11187;49.412;20.956;2023-04-27T10:41:03;95204.63;;;10.06;54.03
22047;BME280;11187;49.412;20.956;2023-04-27T10:43:39;95208.63;;;10.78;54.87
22047;BME280;11187;49.412;20.956;2023-04-27T10:46:34;95199.94;;;10.86;53.86
22047;BME280;11187;49.412;20.956;2023-04-27T10:49:28;95212.41;;;10.55;53.04
22047;BME280;11187;49.412;20.956;2023-04-27T10:52:02;95212.78;;;10.32;54.31
22047;BME280;11187;49.412;20.956;2023-04-27T10:54:56;95211.19;;;10.23;55.08
22047;BME280;11187;49.412;20.956;2023-04-27T10:57:29;95209.53;;;10.19;56.70
22047;BME280;11187;49.412;20.956;2023-04-27T11:00:27;95205.31;;;10.17;54.95
22047;BME280;11187;49.412;20.956;2023-04-27T11:03:18;95210.41;;;10.20;57.28
22047;BME280;11187;49.412;20.956;2023-04-27T11:06:06;95206.91;;;10.24;56.22
22047;BME280;11187;49.412;20.956;2023-04-27T11:08:43;95205.22;;;10.76;52.77
22047;BME280;11187;49.412;20.956;2023-04-27T11:11:30;95202.34;;;10.94;54.75
22047;BME280;11187;49.412;20.956;2023-04-27T11:14:03;95192.66;;;10.63;54.17
22047;BME280;11187;49.412;20.956;2023-04-27T11:16:50;95200.50;;;10.53;53.95
22047;BME280;11187;49.412;20.956;2023-04-27T11:19:24;95204.31;;;10.29;54.88
22047;BME280;11187;49.412;20.956;2023-04-27T11:22:18;95199.28;;;10.21;55.47
22047;BME280;11187;49.412;20.956;2023-04-27T11:24:52;95199.41;;;10.13;55.59
22047;BME280;11187;49.412;20.956;2023-04-27T11:27:46;95204.00;;;9.91;55.28
22047;BME280;11187;49.412;20.956;2023-04-27T11:30:40;95207.59;;;9.79;55.54
22047;BME280;11187;49.412;20.956;2023-04-27T11:33:35;95206.94;;;9.64;55.59
22047;BME280;11187;49.412;20.956;2023-04-27T11:36:16;95207.91;;;9.55;57.07
22047;BME280;11187;49.412;20.956;2023-04-27T11:39:18;95208.91;;;9.43;56.52
22047;BME280;11187;49.412;20.956;2023-04-27T11:41:53;95211.53;;;9.38;57.57
22047;BME280;11187;49.412;20.956;2023-04-27T11:44:42;95214.97;;;9.34;58.20
22047;BME280;11187;49.412;20.956;2023-04-27T11:47:16;95221.75;;;9.37;58.89
22047;BME280;11187;49.412;20.956;2023-04-27T11:50:05;95214.19;;;9.29;58.89
22047;BME280;11187;49.412;20.956;2023-04-27T11:52:39;95220.19;;;9.25;59.08
22047;BME280;11187;49.412;20.956;2023-04-27T11:55:35;95227.81;;;9.28;60.11
22047;BME280;11187;49.412;20.956;2023-04-27T11:58:34;95228.81;;;9.15;58.58
22047;BME280;11187;49.412;20.956;2023-04-27T12:01:11;95218.75;;;9.03;59.03
22047;BME280;11187;49.412;20.956;2023-04-27T12:04:17;95215.50;;;8.87;58.81
22047;BME280;11187;49.412;20.956;2023-04-27T12:07:11;95221.53;;;8.76;58.99
22047;BME280;11187;49.412;20.956;2023-04-27T12:09:44;95222.47;;;8.71;58.73
22047;BME280;11187;49.412;20.956;2023-04-27T12:12:32;95221.59;;;8.73;58.07
22047;BME280;11187;49.412;20.956;2023-04-27T12:15:06;95231.75;;;8.78;58.95
22047;BME280;11187;49.412;20.956;2023-04-27T12:18:00;95225.84;;;8.74;57.94
22047;BME280;11187;49.412;20.956;2023-04-27T12:20:54;95227.59;;;8.66;58.79
22047;BME280;11187;49.412;20.956;2023-04-27T12:23:48;95228.44;;;8.70;59.41
22047;BME280;11187;49.412;20.956;2023-04-27T12:26:42;95226.59;;;8.84;59.13
22047;BME280;11187;49.412;20.956;2023-04-27T12:29:36;95222.50;;;8.68;58.41
22047;BME280;11187;49.412;20.956;2023-04-27T12:32:30;95218.88;;;8.87;59.37
22047;BME280;11187;49.412;20.956;2023-04-27T12:35:24;95226.34;;;9.07;59.93
22047;BME280;11187;49.412;20.956;2023-04-27T12:38:18;95229.72;;;9.11;58.68
22047;BME280;11187;49.412;20.956;2023-04-27T12:40:51;95228.00;;;9.11;57.26
22047;BME280;11187;49.412;20.956;2023-04-27T12:43:45;95225.63;;;8.96;57.63
22047;BME280;11187;49.412;20.956;2023-04-27T12:46:39;95228.31;;;8.82;57.00
22047;BME280;11187;49.412;20.956;2023-04-27T12:49:34;95232.56;;;8.82;58.02
22047;BME280;11187;49.412;20.956;2023-04-27T12:52:28;95229.28;;;8.67;58.92
22047;BME280;11187;49.412;20.956;2023-04-27T12:55:01;95239.50;;;8.70;59.76
22047;BME280;11187;49.412;20.956;2023-04-27T12:58:01;95235.19;;;8.75;60.05
22047;BME280;11187;49.412;20.956;2023-04-27T13:00:36;95235.13;;;8.82;61.11
22047;BME280;11187;49.412;20.956;2023-04-27T13:03:23;95241.81;;;8.95;60.81
22047;BME280;11187;49.412;20.956;2023-04-27T13:05:56;95236.72;;;8.93;60.69
22047;BME280;11187;49.412;20.956;2023-04-27T13:08:50;95233.28;;;8.97;60.70
22047;BME280;11187;49.412;20.956;2023-04-27T13:11:44;95234.84;;;9.09;61.02
22047;BME280;11187;49.412;20.956;2023-04-27T13:14:17;95231.25;;;9.26;61.26
22047;BME280;11187;49.412;20.956;2023-04-27T13:17:04;95226.81;;;9.41;60.29
22047;BME280;11187;49.412;20.956;2023-04-27T13:19:37;95222.41;;;9.51;59.34
22047;BME280;11187;49.412;20.956;2023-04-27T13:22:31;95221.59;;;9.51;58.34
22047;BME280;11187;49.412;20.956;2023-04-27T13:25:04;95221.47;;;9.60;58.20
22047;BME280;11187;49.412;20.956;2023-04-27T13:27:52;95227.31;;;9.70;59.09
22047;BME280;11187;49.412;20.956;2023-04-27T13:30:26;95230.59;;;9.78;58.20
22047;BME280;11187;49.412;20.956;2023-04-27T13:33:21;95235.66;;;9.81;58.10
22047;BME280;11187;49.412;20.956;2023-04-27T13:36:15;95231.59;;;9.68;54.53
22047;BME280;11187;49.412;20.956;2023-04-27T13:38:48;95220.69;;;9.56;56.43
22047;BME280;11187;49.412;20.956;2023-04-27T13:41:42;95229.19;;;9.55;56.85
22047;BME280;11187;49.412;20.956;2023-04-27T13:44:22;95237.69;;;9.56;57.98
22047;BME280;11187;49.412;20.956;2023-04-27T13:47:16;95229.19;;;9.57;57.16
22047;BME280;11187;49.412;20.956;2023-04-27T13:49:49;95241.34;;;9.36;56.42
22047;BME280;11187;49.412;20.956;2023-04-27T13:52:43;95246.72;;;9.12;57.39
22047;BME280;11187;49.412;20.956;2023-04-27T13:55:16;95253.66;;;9.02;58.27
22047;BME280;11187;49.412;20.956;2023-04-27T13:58:03;95260.72;;;8.75;59.02
22047;BME280;11187;49.412;20.956;2023-04-27T14:00:37;95264.22;;;8.61;58.92
22047;BME280;11187;49.412;20.956;2023-04-27T14:03:33;95264.31;;;8.53;60.25
22047;BME280;11187;49.412;20.956;2023-04-27T14:06:28;95260.94;;;8.46;60.30
22047;BME280;11187;49.412;20.956;2023-04-27T14:09:01;95265.25;;;8.38;60.31
22047;BME280;11187;49.412;20.956;2023-04-27T14:11:55;95262.72;;;8.29;61.31
22047;BME280;11187;49.412;20.956;2023-04-27T14:14:50;95259.34;;;8.30;61.58
22047;BME280;11187;49.412;20.956;2023-04-27T14:17:24;95266.13;;;8.34;61.37
22047;BME280;11187;49.412;20.956;2023-04-27T14:20:11;95260.16;;;8.38;62.04
22047;BME280;11187;49.412;20.956;2023-04-27T14:22:44;95263.50;;;8.46;62.53
22047;BME280;11187;49.412;20.956;2023-04-27T14:25:38;95266.00;;;8.54;62.68
22047;BME280;11187;49.412;20.956;2023-04-27T14:28:32;95273.63;;;8.55;62.76
22047;BME280;11187;49.412;20.956;2023-04-27T14:31:06;95269.31;;;8.62;62.41
22047;BME280;11187;49.412;20.956;2023-04-27T14:33:53;95265.09;;;8.58;61.58
22047;BME280;11187;49.412;20.956;2023-04-27T14:36:28;95266.78;;;8.61;63.24
22047;BME280;11187;49.412;20.956;2023-04-27T14:39:15;95261.63;;;8.70;63.13
22047;BME280;11187;49.412;20.956;2023-04-27T14:41:48;95255.69;;;8.66;62.28
22047;BME280;11187;49.412;20.956;2023-04-27T14:44:42;95264.09;;;8.77;62.72
22047;BME280;11187;49.412;20.956;2023-04-27T14:47:36;95258.06;;;8.83;61.04